Time;durP1;ratioP1;P1;durP2;ratioP2;P2;SDS_P1;SDS_P2;PMS_P1;PMS_P2;Temp;Humidity;BMP_temperature;BMP_pressure;BME280_temperature;BME280_humidity;BME280_pressure;Samples;Min_cycle;Max_cycle;Signal;HPM_P1;HPM_P2
2022/08/24 00:02:26;;;;;;;;;;;;;;;;;;4826144;29;20190;-44
2022/08/24 00:04:53;;;;;;;;;;;;;;;;;;4825738;29;20397;-44
2022/08/24 00:07:21;;;;;;;;;;;;;;;;;;4839727;29;19925;-43
2022/08/24 00:09:54;;;;;;;;;;;;;;;;;;4825810;29;19929;-44
2022/08/24 00:12:21;;;;;;;;;;;;;;;;;;4825816;29;20007;-43
2022/08/24 00:14:48;;;;;;;;;;;;;;;;;;4825629;29;19931;-43
2022/08/24 00:17:16;;;;;;;;;;;;;;;;;;4825726;29;19981;-43
2022/08/24 00:19:43;;;;;;;;;;;;;;;;;;4818424;29;19929;-43
2022/08/24 00:22:10;;;;;;;;;;;;;;;;;;4807525;29;19982;-43
2022/08/24 00:24:37;;;;;;;;;;;;;;;;;;4807307;29;20047;-43
2022/08/24 00:27:05;;;;;;;;;;;;;;;;;;4807701;29;19932;-46
2022/08/24 00:29:33;;;;;;;;;;;;;;;;;;4821380;29;20019;-43
2022/08/24 00:32:00;;;;;;;;;;;;;;;;;;4821449;29;20306;-44
2022/08/24 00:34:28;;;;;;;;;;;;;;;;;;4807379;29;19981;-44
2022/08/24 00:36:55;;;;;;;;;;;;;;;;;;4806040;29;19929;-44
2022/08/24 00:39:23;;;;;;;;;;;;;;;;;;4821248;29;19936;-44
2022/08/24 00:41:50;;;;;;;;;;;;;;;;;;4807242;29;19925;-44
2022/08/24 00:44:19;;;;;;;;;;;;;;;;;;4807354;29;19925;-42
2022/08/24 00:46:53;;;;;;;;;;;;;;;;;;4820896;29;19924;-43
2022/08/24 00:49:33;;;;;;;;;;;;;;;;;;4821128;29;19964;-43
2022/08/24 00:52:04;;;;;;;;;;;;;;;;;;4807140;29;19975;-46
2022/08/24 00:54:35;;;;;;;;;;;;;;;;;;4807186;29;19925;-46
2022/08/24 00:57:04;;;;;;;;;;;;;;;;;;4821008;29;19932;-46
2022/08/24 00:59:37;;;;;;;;;;;;;;;;;;4820815;29;19968;-43
2022/08/24 01:02:08;;;;;;;;;;;;;;;;;;4807150;29;19996;-45
2022/08/24 01:04:56;;;;;;;;;;;;;;;;;;4820650;29;19931;-46
2022/08/24 01:07:24;;;;;;;;;;;;;;;;;;4820859;29;19991;-44
2022/08/24 01:09:52;;;;;;;;;;;;;;;;;;4806683;29;20270;-44
2022/08/24 01:12:21;;;;;;;;;;;;;;;;;;4806847;29;20465;-45
2022/08/24 01:14:48;;;;;;;;;;;;;;;;;;4806752;29;20361;-45
2022/08/24 01:20:06;;;;;;;;;;;;;;;;;;4830677;29;19941;-44
2022/08/24 01:22:46;;;;;;;;;;;;;;;;;;4838658;29;20004;-46
2022/08/24 01:25:13;;;;;;;;;;;;;;;;;;4838488;29;19932;-44
2022/08/24 01:27:44;;;;;;;;;;;;;;;;;;4838285;29;19925;-44
2022/08/24 01:30:12;;;;;;;;;;;;;;;;;;4838693;29;19924;-45
2022/08/24 01:32:40;;;;;;;;;;;;;;;;;;4838238;29;19931;-45
2022/08/24 01:35:08;;;;;;;;;;;;;;;;;;4838692;29;20397;-44
2022/08/24 01:37:37;;;;;;;;;;;;;;;;;;4824447;29;19958;-45
2022/08/24 01:40:06;;;;;;;;;;;;;;;;;;4824569;29;20062;-42
2022/08/24 01:42:33;;;;;;;;;;;;;;;;;;4824675;29;19929;-45
2022/08/24 01:45:01;;;;;;;;;;;;;;;;;;4838344;29;19981;-44
2022/08/24 01:47:28;;;;;;;;;;;;;;;;;;4837592;29;20457;-46
2022/08/24 01:49:56;;;;;;;;;;;;;;;;;;4838620;29;19932;-46
2022/08/24 01:52:25;;;;;;;;;;;;;;;;;;4838109;29;19976;-45
2022/08/24 01:54:55;;;;;;;;;;;;;;;;;;4837962;29;19964;-48
2022/08/24 01:57:24;;;;;;;;;;;;;;;;;;4824384;29;20461;-42
2022/08/24 01:59:51;;;;;;;;;;;;;;;;;;4824167;29;20403;-44
2022/08/24 02:02:22;;;;;;;;;;;;;;;;;;4837961;29;20396;-44
2022/08/24 02:04:50;;;;;;;;;;;;;;;;;;4837807;29;19932;-45
2022/08/24 02:07:18;;;;;;;;;;;;;;;;;;4824263;29;20011;-42
2022/08/24 02:09:46;;;;;;;;;;;;;;;;;;4837784;29;19925;-45
2022/08/24 02:12:15;;;;;;;;;;;;;;;;;;4837839;29;19932;-43
2022/08/24 02:14:43;;;;;;;;;;;;;;;;;;4837530;29;19928;-43
2022/08/24 02:17:10;;;;;;;;;;;;;;;;;;4817051;29;19958;-43
2022/08/24 02:19:37;;;;;;;;;;;;;;;;;;4805537;29;20435;-43
2022/08/24 02:22:05;;;;;;;;;;;;;;;;;;4819773;29;19925;-44
2022/08/24 02:24:35;;;;;;;;;;;;;;;;;;4819644;29;20304;-44
2022/08/24 02:27:03;;;;;;;;;;;;;;;;;;4819562;29;19925;-43
2022/08/24 02:29:32;;;;;;;;;;;;;;;;;;4819754;29;19926;-43
2022/08/24 02:31:59;;;;;;;;;;;;;;;;;;4819497;29;19925;-46
2022/08/24 02:34:26;;;;;;;;;;;;;;;;;;4805471;29;20020;-45
2022/08/24 02:36:53;;;;;;;;;;;;;;;;;;4805272;29;19933;-43
2022/08/24 02:39:20;;;;;;;;;;;;;;;;;;4819396;29;19965;-43
2022/08/24 02:41:50;;;;;;;;;;;;;;;;;;4819294;29;19931;-43
2022/08/24 02:44:18;;;;;;;;;;;;;;;;;;4819368;29;19973;-43
2022/08/24 02:46:45;;;;;;;;;;;;;;;;;;4805242;29;19925;-43
2022/08/24 02:49:13;;;;;;;;;;;;;;;;;;4819199;29;19973;-47
2022/08/24 02:51:42;;;;;;;;;;;;;;;;;;4819378;29;19925;-44
2022/08/24 02:54:18;;;;;;;;;;;;;;;;;;4803761;29;20016;-48
2022/08/24 02:56:50;;;;;;;;;;;;;;;;;;4819018;29;19925;-43
2022/08/24 02:59:19;;;;;;;;;;;;;;;;;;4819676;29;20652;-43
2022/08/24 03:01:48;;;;;;;;;;;;;;;;;;4822960;29;20424;-44
2022/08/24 03:04:18;;;;;;;;;;;;;;;;;;4822709;29;19931;-44
2022/08/24 03:06:45;;;;;;;;;;;;;;;;;;4822703;29;19935;-43
2022/08/24 03:09:13;;;;;;;;;;;;;;;;;;4808751;29;20007;-43
2022/08/24 03:11:40;;;;;;;;;;;;;;;;;;4808717;29;19925;-43
2022/08/24 03:14:11;;;;;;;;;;;;;;;;;;4808972;29;19925;-44
2022/08/24 03:16:38;;;;;;;;;;;;;;;;;;4822412;29;19982;-43
2022/08/24 03:19:05;;;;;;;;;;;;;;;;;;4824904;29;19959;-43
2022/08/24 03:21:35;;;;;;;;;;;;;;;;;;4840991;29;20015;-43
2022/08/24 03:24:02;;;;;;;;;;;;;;;;;;4840814;29;19925;-43
2022/08/24 03:26:30;;;;;;;;;;;;;;;;;;4814985;29;19925;-43
2022/08/24 03:29:00;;;;;;;;;;;;;;;;;;4808219;29;19940;-51
2022/08/24 03:31:30;;;;;;;;;;;;;;;;;;4822294;29;19931;-47
2022/08/24 03:33:58;;;;;;;;;;;;;;;;;;4822232;29;19924;-44
2022/08/24 03:36:25;;;;;;;;;;;;;;;;;;4822202;29;19932;-44
2022/08/24 03:38:53;;;;;;;;;;;;;;;;;;4808197;29;19964;-43
2022/08/24 03:41:20;;;;;;;;;;;;;;;;;;4822093;29;20048;-43
2022/08/24 03:43:48;;;;;;;;;;;;;;;;;;4808101;29;20404;-47
2022/08/24 03:46:20;;;;;;;;;;;;;;;;;;4806947;29;19929;-45
2022/08/24 03:48:48;;;;;;;;;;;;;;;;;;4821844;29;19932;-44
2022/08/24 03:51:19;;;;;;;;;;;;;;;;;;4806845;29;20365;-46
2022/08/24 03:53:47;;;;;;;;;;;;;;;;;;4821906;29;20293;-44
2022/08/24 03:56:16;;;;;;;;;;;;;;;;;;4806730;29;20286;-43
2022/08/24 03:58:44;;;;;;;;;;;;;;;;;;4821372;29;20381;-44
2022/08/24 04:01:12;;;;;;;;;;;;;;;;;;4807931;29;19975;-44
2022/08/24 04:03:42;;;;;;;;;;;;;;;;;;4821577;29;19948;-43
2022/08/24 04:06:11;;;;;;;;;;;;;;;;;;4821761;29;19947;-45
2022/08/24 04:08:40;;;;;;;;;;;;;;;;;;4807588;29;19925;-42
2022/08/24 04:11:18;;;;;;;;;;;;;;;;;;4821418;29;20007;-43
2022/08/24 04:13:46;;;;;;;;;;;;;;;;;;4807637;29;19929;-42
2022/08/24 04:16:16;;;;;;;;;;;;;;;;;;4821542;29;19929;-44
2022/08/24 04:18:45;;;;;;;;;;;;;;;;;;4821266;29;20389;-43
2022/08/24 04:21:18;;;;;;;;;;;;;;;;;;4821331;29;19933;-44
2022/08/24 04:23:46;;;;;;;;;;;;;;;;;;4807112;29;20404;-43
2022/08/24 04:26:16;;;;;;;;;;;;;;;;;;4821285;29;19925;-44
2022/08/24 04:29:05;;;;;;;;;;;;;;;;;;4807358;29;19925;-43
2022/08/24 04:31:37;;;;;;;;;;;;;;;;;;4821187;29;19929;-45
2022/08/24 04:34:06;;;;;;;;;;;;;;;;;;4821065;29;20019;-44
2022/08/24 04:36:33;;;;;;;;;;;;;;;;;;4821226;29;19972;-43
2022/08/24 04:39:01;;;;;;;;;;;;;;;;;;4807187;29;19929;-43
2022/08/24 04:41:56;;;;;;;;;;;;;;;;;;4807912;29;19929;-43
2022/08/24 04:44:28;;;;;;;;;;;;;;;;;;4806924;29;20299;-45
2022/08/24 04:46:57;;;;;;;;;;;;;;;;;;4820819;29;19985;-44
2022/08/24 04:49:25;;;;;;;;;;;;;;;;;;4805514;29;19933;-45
2022/08/24 04:51:52;;;;;;;;;;;;;;;;;;4820752;29;20016;-43
2022/08/24 04:54:21;;;;;;;;;;;;;;;;;;4820871;29;19932;-43
2022/08/24 04:57:03;;;;;;;;;;;;;;;;;;4820680;29;19929;-43
2022/08/24 04:59:30;;;;;;;;;;;;;;;;;;4820909;29;20020;-43
2022/08/24 05:01:58;;;;;;;;;;;;;;;;;;4820372;29;20303;-44
2022/08/24 05:04:25;;;;;;;;;;;;;;;;;;4820446;29;20032;-46
2022/08/24 05:06:53;;;;;;;;;;;;;;;;;;4820481;29;19964;-44
2022/08/24 05:09:20;;;;;;;;;;;;;;;;;;4806501;29;19972;-43
2022/08/24 05:11:48;;;;;;;;;;;;;;;;;;4820600;29;20443;-44
2022/08/24 05:14:21;;;;;;;;;;;;;;;;;;4806544;29;19925;-46
2022/08/24 05:16:53;;;;;;;;;;;;;;;;;;4820489;29;19944;-44
2022/08/24 05:19:21;;;;;;;;;;;;;;;;;;4824809;29;19931;-44
2022/08/24 05:21:49;;;;;;;;;;;;;;;;;;4838211;29;19924;-45
2022/08/24 05:24:20;;;;;;;;;;;;;;;;;;4838461;29;20433;-44
2022/08/24 05:26:50;;;;;;;;;;;;;;;;;;4838526;29;19924;-43
2022/08/24 05:29:17;;;;;;;;;;;;;;;;;;4838525;29;20419;-45
2022/08/24 05:31:48;;;;;;;;;;;;;;;;;;4838423;29;20342;-43
2022/08/24 05:34:16;;;;;;;;;;;;;;;;;;4838509;29;19978;-44
2022/08/24 05:36:44;;;;;;;;;;;;;;;;;;4838027;29;19951;-47
2022/08/24 05:39:31;;;;;;;;;;;;;;;;;;4837449;29;20404;-46
2022/08/24 05:42:06;;;;;;;;;;;;;;;;;;4824589;29;19925;-45
2022/08/24 05:44:36;;;;;;;;;;;;;;;;;;4838694;29;19960;-44
2022/08/24 05:47:04;;;;;;;;;;;;;;;;;;4824455;29;19925;-48
2022/08/24 05:49:31;;;;;;;;;;;;;;;;;;4824343;29;19928;-45
2022/08/24 05:51:58;;;;;;;;;;;;;;;;;;4838290;29;20188;-45
2022/08/24 05:54:26;;;;;;;;;;;;;;;;;;4838184;29;19950;-46
2022/08/24 05:57:05;;;;;;;;;;;;;;;;;;4838233;29;19982;-47
2022/08/24 05:59:39;;;;;;;;;;;;;;;;;;4837992;29;20353;-45
2022/08/24 06:02:13;;;;;;;;;;;;;;;;;;4838305;29;19925;-43
2022/08/24 06:04:40;;;;;;;;;;;;;;;;;;4824011;29;19960;-45
2022/08/24 06:07:10;;;;;;;;;;;;;;;;;;4838136;29;19925;-44
2022/08/24 06:09:41;;;;;;;;;;;;;;;;;;4837794;29;19924;-43
2022/08/24 06:12:10;;;;;;;;;;;;;;;;;;4837853;29;19931;-44
2022/08/24 06:14:43;;;;;;;;;;;;;;;;;;4837858;29;19925;-46
2022/08/24 06:17:11;;;;;;;;;;;;;;;;;;4838007;29;19932;-45
2022/08/24 06:19:39;;;;;;;;;;;;;;;;;;4831435;29;20320;-44
2022/08/24 06:22:06;;;;;;;;;;;;;;;;;;4820002;29;19980;-46
2022/08/24 06:27:26;;;;;;;;;;;;;;;;;;4805628;29;19925;-45
2022/08/24 06:30:00;;;;;;;;;;;;;;;;;;4819521;29;19925;-46
2022/08/24 06:32:50;;;;;;;;;;;;;;;;;;4805128;29;19925;-44
2022/08/24 06:35:28;;;;;;;;;;;;;;;;;;4819641;29;19933;-45
2022/08/24 06:37:56;;;;;;;;;;;;;;;;;;4805506;29;20016;-44
2022/08/24 06:40:24;;;;;;;;;;;;;;;;;;4819464;29;19997;-44
2022/08/24 06:42:52;;;;;;;;;;;;;;;;;;4805132;29;19929;-46
2022/08/24 06:45:43;;;;;;;;;;;;;;;;;;4805576;29;19925;-45
2022/08/24 06:48:13;;;;;;;;;;;;;;;;;;4819328;29;20309;-45
2022/08/24 06:50:40;;;;;;;;;;;;;;;;;;4819008;29;19982;-44
2022/08/24 06:53:08;;;;;;;;;;;;;;;;;;4819533;29;19956;-44
2022/08/24 06:55:35;;;;;;;;;;;;;;;;;;4819346;29;19933;-44
2022/08/24 06:58:02;;;;;;;;;;;;;;;;;;4819198;29;20390;-45
2022/08/24 07:00:29;;;;;;;;;;;;;;;;;;4819164;29;19932;-45
2022/08/24 07:02:57;;;;;;;;;;;;;;;;;;4805088;29;20296;-44
2022/08/24 07:05:26;;;;;;;;;;;;;;;;;;4818995;29;19977;-47
2022/08/24 07:08:19;;;;;;;;;;;;;;;;;;4804091;29;19932;-44
2022/08/24 07:10:46;;;;;;;;;;;;;;;;;;4805105;29;19972;-44
2022/08/24 07:13:14;;;;;;;;;;;;;;;;;;4819236;29;19925;-45
2022/08/24 07:15:41;;;;;;;;;;;;;;;;;;4805189;29;19972;-47
2022/08/24 07:18:15;;;;;;;;;;;;;;;;;;4804966;29;19936;-44
2022/08/24 07:20:46;;;;;;;;;;;;;;;;;;4819581;29;20300;-45
2022/08/24 07:23:19;;;;;;;;;;;;;;;;;;4837182;29;20317;-44
2022/08/24 07:25:47;;;;;;;;;;;;;;;;;;4823237;29;20293;-45
2022/08/24 07:28:20;;;;;;;;;;;;;;;;;;4837124;29;20373;-43
2022/08/24 07:30:53;;;;;;;;;;;;;;;;;;4822977;29;20397;-44
2022/08/24 07:33:21;;;;;;;;;;;;;;;;;;4837091;29;19925;-46
2022/08/24 07:35:50;;;;;;;;;;;;;;;;;;4837159;29;20333;-45
2022/08/24 07:38:18;;;;;;;;;;;;;;;;;;4837046;29;19925;-45
2022/08/24 07:40:48;;;;;;;;;;;;;;;;;;4836904;29;19929;-45
2022/08/24 07:43:36;;;;;;;;;;;;;;;;;;4823283;29;20296;-47
2022/08/24 07:46:07;;;;;;;;;;;;;;;;;;4838642;29;19925;-48
2022/08/24 07:48:35;;;;;;;;;;;;;;;;;;4825017;29;19982;-45
2022/08/24 07:51:07;;;;;;;;;;;;;;;;;;4840222;29;19964;-44
2022/08/24 07:53:35;;;;;;;;;;;;;;;;;;4840754;29;19980;-44
2022/08/24 07:56:19;;;;;;;;;;;;;;;;;;4826008;29;19924;-45
2022/08/24 07:58:47;;;;;;;;;;;;;;;;;;4839821;29;19932;-44
2022/08/24 08:01:16;;;;;;;;;;;;;;;;;;4824215;29;19925;-47
2022/08/24 08:03:43;;;;;;;;;;;;;;;;;;4821896;29;19925;-44
2022/08/24 08:06:11;;;;;;;;;;;;;;;;;;4821551;29;20386;-52
2022/08/24 08:08:44;;;;;;;;;;;;;;;;;;4821276;29;19925;-45
2022/08/24 08:11:12;;;;;;;;;;;;;;;;;;4807488;29;19925;-46
2022/08/24 08:13:42;;;;;;;;;;;;;;;;;;4821534;29;19931;-44
2022/08/24 08:16:10;;;;;;;;;;;;;;;;;;4821530;29;19948;-43
2022/08/24 08:18:37;;;;;;;;;;;;;;;;;;4806888;29;19967;-46
2022/08/24 08:24:13;;;;;;;;;;;;;;;;;;4824139;29;20381;-44
2022/08/24 08:24:16;;;;;;;;;;;;;;;;;;4839836;29;20363;-44
2022/08/24 08:26:50;;;;;;;;;;;;;;;;;;4839555;29;19931;-46
2022/08/24 08:29:33;;;;;;;;;;;;;;;;;;4839533;29;20036;-44
2022/08/24 08:32:01;;;;;;;;;;;;;;;;;;4839733;29;19925;-45
2022/08/24 08:34:30;;;;;;;;;;;;;;;;;;4825476;29;20373;-44
2022/08/24 08:36:57;;;;;;;;;;;;;;;;;;4825405;29;19951;-44
2022/08/24 08:39:25;;;;;;;;;;;;;;;;;;4825320;29;19928;-46
2022/08/24 08:42:16;;;;;;;;;;;;;;;;;;4839220;29;20389;-46
2022/08/24 08:44:47;;;;;;;;;;;;;;;;;;4839277;29;19928;-46
2022/08/24 08:47:21;;;;;;;;;;;;;;;;;;4839271;29;19931;-44
2022/08/24 08:50:03;;;;;;;;;;;;;;;;;;4839319;29;19925;-46
2022/08/24 08:52:51;;;;;;;;;;;;;;;;;;4839271;29;19925;-46
2022/08/24 08:55:37;;;;;;;;;;;;;;;;;;4825331;29;20015;-45
2022/08/24 08:58:25;;;;;;;;;;;;;;;;;;4837029;29;20338;-45
2022/08/24 09:01:12;;;;;;;;;;;;;;;;;;4820349;29;19957;-44
2022/08/24 09:03:53;;;;;;;;;;;;;;;;;;4820843;29;19929;-45
2022/08/24 09:06:56;;;;;;;;;;;;;;;;;;4805928;29;20456;-45
2022/08/24 09:09:40;;;;;;;;;;;;;;;;;;4820500;29;19931;-47
2022/08/24 09:12:18;;;;;;;;;;;;;;;;;;4820660;29;19925;-49
2022/08/24 09:14:45;;;;;;;;;;;;;;;;;;4820422;29;19932;-45
2022/08/24 09:17:29;;;;;;;;;;;;;;;;;;4820408;29;20020;-49
2022/08/24 09:20:17;;;;;;;;;;;;;;;;;;4829278;29;19928;-44
2022/08/24 09:22:46;;;;;;;;;;;;;;;;;;4824695;29;19925;-46
2022/08/24 09:25:19;;;;;;;;;;;;;;;;;;4838556;29;20397;-51
2022/08/24 09:28:19;;;;;;;;;;;;;;;;;;4838495;29;20487;-44
2022/08/24 09:30:59;;;;;;;;;;;;;;;;;;4824321;29;19925;-49
2022/08/24 09:33:34;;;;;;;;;;;;;;;;;;4824584;29;19932;-46
2022/08/24 09:36:06;;;;;;;;;;;;;;;;;;4824650;29;19924;-43
2022/08/24 09:38:46;;;;;;;;;;;;;;;;;;4824457;29;20023;-44
2022/08/24 09:41:22;;;;;;;;;;;;;;;;;;4824358;29;19925;-45
2022/08/24 09:44:01;;;;;;;;;;;;;;;;;;4824455;29;19924;-45
2022/08/24 09:46:48;;;;;;;;;;;;;;;;;;4824255;29;19972;-45
2022/08/24 09:49:27;;;;;;;;;;;;;;;;;;4824237;29;20007;-45
2022/08/24 09:52:13;;;;;;;;;;;;;;;;;;4824320;29;19925;-43
2022/08/24 09:54:59;;;;;;;;;;;;;;;;;;4824222;29;20294;-43
2022/08/24 09:57:42;;;;;;;;;;;;;;;;;;4824096;29;20680;-43
2022/08/24 10:00:49;;;;;;;;;;;;;;;;;;4824287;29;19925;-44
2022/08/24 10:03:23;;;;;;;;;;;;;;;;;;4823902;29;20274;-45
2022/08/24 10:06:20;;;;;;;;;;;;;;;;;;4824279;29;19925;-44
2022/08/24 10:09:13;;;;;;;;;;;;;;;;;;4823597;29;19982;-45
2022/08/24 10:11:43;;;;;;;;;;;;;;;;;;4824037;29;19947;-46
2022/08/24 10:14:29;;;;;;;;;;;;;;;;;;4824053;29;19971;-43
2022/08/24 10:16:56;;;;;;;;;;;;;;;;;;4823913;29;19933;-44
2022/08/24 10:19:26;;;;;;;;;;;;;;;;;;4819113;29;19925;-44
2022/08/24 10:21:56;;;;;;;;;;;;;;;;;;4805521;29;19931;-44
2022/08/24 10:24:35;;;;;;;;;;;;;;;;;;4805495;29;20020;-50
2022/08/24 10:27:08;;;;;;;;;;;;;;;;;;4805508;29;19928;-44
2022/08/24 10:29:36;;;;;;;;;;;;;;;;;;4805448;29;19925;-44
2022/08/24 10:32:12;;;;;;;;;;;;;;;;;;4805303;29;20346;-45
2022/08/24 10:34:59;;;;;;;;;;;;;;;;;;4804939;29;20282;-46
2022/08/24 10:37:26;;;;;;;;;;;;;;;;;;4805448;29;20377;-45
2022/08/24 10:40:03;;;;;;;;;;;;;;;;;;4805460;29;20012;-43
2022/08/24 10:45:42;;;;;;;;;;;;;;;;;;4805273;29;20388;-43
2022/08/24 10:48:19;;;;;;;;;;;;;;;;;;4805284;29;19972;-44
2022/08/24 10:50:52;;;;;;;;;;;;;;;;;;4804952;29;19947;-43
2022/08/24 10:53:25;;;;;;;;;;;;;;;;;;4805272;29;19925;-48
2022/08/24 10:56:12;;;;;;;;;;;;;;;;;;4804692;29;20381;-44
2022/08/24 10:58:50;;;;;;;;;;;;;;;;;;4804985;29;19999;-46
2022/08/24 11:01:17;;;;;;;;;;;;;;;;;;4805304;29;19948;-47
2022/08/24 11:03:54;;;;;;;;;;;;;;;;;;4804992;29;20285;-43
2022/08/24 11:06:23;;;;;;;;;;;;;;;;;;4805442;29;20331;-44
2022/08/24 11:08:52;;;;;;;;;;;;;;;;;;4804575;29;20286;-43
2022/08/24 11:11:28;;;;;;;;;;;;;;;;;;4805198;29;19925;-43
2022/08/24 11:14:01;;;;;;;;;;;;;;;;;;4805155;29;19932;-49
2022/08/24 11:16:31;;;;;;;;;;;;;;;;;;4805132;29;20571;-49
2022/08/24 11:19:00;;;;;;;;;;;;;;;;;;4806399;29;20390;-43
2022/08/24 11:21:44;;;;;;;;;;;;;;;;;;4825531;29;19924;-48
2022/08/24 11:24:18;;;;;;;;;;;;;;;;;;4826723;29;20023;-44
2022/08/24 11:26:51;;;;;;;;;;;;;;;;;;4826536;29;20388;-44
2022/08/24 11:29:20;;;;;;;;;;;;;;;;;;4826648;29;19955;-48
2022/08/24 11:31:49;;;;;;;;;;;;;;;;;;4826576;29;19925;-43
2022/08/24 11:34:18;;;;;;;;;;;;;;;;;;4826318;29;20369;-44
2022/08/24 11:36:45;;;;;;;;;;;;;;;;;;4826531;29;20304;-45
2022/08/24 11:39:20;;;;;;;;;;;;;;;;;;4826038;29;19928;-44
2022/08/24 11:41:47;;;;;;;;;;;;;;;;;;4826243;29;19932;-45
2022/08/24 11:44:20;;;;;;;;;;;;;;;;;;4825230;29;20011;-43
2022/08/24 11:46:52;;;;;;;;;;;;;;;;;;4826185;29;19925;-44
2022/08/24 11:49:22;;;;;;;;;;;;;;;;;;4826140;29;19924;-44
2022/08/24 11:52:02;;;;;;;;;;;;;;;;;;4825917;29;19936;-45
2022/08/24 11:54:40;;;;;;;;;;;;;;;;;;4826140;29;19929;-44
2022/08/24 11:57:17;;;;;;;;;;;;;;;;;;4826335;29;19932;-44
2022/08/24 11:59:56;;;;;;;;;;;;;;;;;;4825740;29;19925;-48
2022/08/24 12:02:29;;;;;;;;;;;;;;;;;;4825841;29;19928;-45
2022/08/24 12:05:05;;;;;;;;;;;;;;;;;;4825680;29;19928;-45
2022/08/24 12:07:32;;;;;;;;;;;;;;;;;;4825704;29;19929;-50
2022/08/24 12:10:02;;;;;;;;;;;;;;;;;;4825500;29;19925;-43
2022/08/24 12:12:42;;;;;;;;;;;;;;;;;;4825397;29;19948;-44
2022/08/24 12:15:28;;;;;;;;;;;;;;;;;;4825794;29;19925;-44
2022/08/24 12:18:16;;;;;;;;;;;;;;;;;;4825583;29;19941;-45
2022/08/24 12:20:48;;;;;;;;;;;;;;;;;;4818300;29;19925;-44
2022/08/24 12:23:30;;;;;;;;;;;;;;;;;;4807400;29;20297;-49
2022/08/24 12:26:03;;;;;;;;;;;;;;;;;;4807519;29;19933;-43
2022/08/24 12:28:57;;;;;;;;;;;;;;;;;;4807037;29;19929;-47
2022/08/24 12:31:37;;;;;;;;;;;;;;;;;;4808192;29;19925;-44
2022/08/24 12:34:27;;;;;;;;;;;;;;;;;;4807512;29;19929;-46
2022/08/24 12:36:58;;;;;;;;;;;;;;;;;;4822656;29;19929;-45
2022/08/24 12:39:28;;;;;;;;;;;;;;;;;;4807173;29;19925;-44
2022/08/24 12:42:15;;;;;;;;;;;;;;;;;;4807288;29;20439;-44
2022/08/24 12:44:57;;;;;;;;;;;;;;;;;;4806824;29;19925;-46
2022/08/24 12:47:28;;;;;;;;;;;;;;;;;;4807414;29;19936;-43
2022/08/24 12:50:04;;;;;;;;;;;;;;;;;;4806997;29;20352;-43
2022/08/24 12:52:43;;;;;;;;;;;;;;;;;;4807204;29;19969;-43
2022/08/24 12:55:21;;;;;;;;;;;;;;;;;;4807222;29;19925;-44
2022/08/24 12:58:09;;;;;;;;;;;;;;;;;;4806935;29;19925;-44
2022/08/24 13:00:56;;;;;;;;;;;;;;;;;;4806920;29;20035;-44
2022/08/24 13:03:47;;;;;;;;;;;;;;;;;;4806956;29;19925;-43
2022/08/24 13:06:18;;;;;;;;;;;;;;;;;;4806675;29;19924;-42
2022/08/24 13:08:49;;;;;;;;;;;;;;;;;;4806587;29;19929;-44
2022/08/24 13:11:23;;;;;;;;;;;;;;;;;;4806629;29;19933;-43
2022/08/24 13:13:54;;;;;;;;;;;;;;;;;;4806552;29;19931;-43
2022/08/24 13:16:40;;;;;;;;;;;;;;;;;;4806641;29;20338;-45
2022/08/24 13:19:16;;;;;;;;;;;;;;;;;;4809261;29;19999;-46
2022/08/24 13:21:45;;;;;;;;;;;;;;;;;;4824627;29;19931;-46
2022/08/24 13:24:33;;;;;;;;;;;;;;;;;;4824580;29;19924;-43
2022/08/24 13:27:10;;;;;;;;;;;;;;;;;;4826521;29;19928;-44
2022/08/24 13:29:38;;;;;;;;;;;;;;;;;;4824195;29;19924;-44
2022/08/24 13:32:06;;;;;;;;;;;;;;;;;;4838296;29;19929;-46
2022/08/24 13:34:44;;;;;;;;;;;;;;;;;;4838638;29;20296;-46
2022/08/24 13:37:15;;;;;;;;;;;;;;;;;;4824632;29;19925;-45
2022/08/24 13:39:51;;;;;;;;;;;;;;;;;;4824356;29;19977;-43
2022/08/24 13:42:37;;;;;;;;;;;;;;;;;;4824266;29;20372;-44
2022/08/24 13:45:14;;;;;;;;;;;;;;;;;;4824079;29;19928;-44
2022/08/24 13:47:48;;;;;;;;;;;;;;;;;;4824444;29;19928;-44
2022/08/24 13:50:31;;;;;;;;;;;;;;;;;;4824202;29;19979;-45
2022/08/24 13:53:17;;;;;;;;;;;;;;;;;;4824048;29;19928;-46
2022/08/24 13:55:45;;;;;;;;;;;;;;;;;;4824082;29;19925;-46
2022/08/24 13:58:12;;;;;;;;;;;;;;;;;;4824471;29;20304;-45
2022/08/24 14:00:42;;;;;;;;;;;;;;;;;;4824283;29;20012;-45
2022/08/24 14:03:21;;;;;;;;;;;;;;;;;;4824251;29;19993;-44
2022/08/24 14:05:58;;;;;;;;;;;;;;;;;;4824107;29;19993;-47
2022/08/24 14:08:44;;;;;;;;;;;;;;;;;;4824284;29;19932;-44
2022/08/24 14:11:32;;;;;;;;;;;;;;;;;;4823799;29;19979;-44
2022/08/24 14:14:19;;;;;;;;;;;;;;;;;;4823979;29;19947;-44
2022/08/24 14:20:28;;;;;;;;;;;;;;;;;;4814037;29;19984;-43
2022/08/24 14:22:59;;;;;;;;;;;;;;;;;;4823370;29;19988;-44
2022/08/24 14:25:32;;;;;;;;;;;;;;;;;;4823444;29;20019;-45
2022/08/24 14:27:59;;;;;;;;;;;;;;;;;;4823415;29;20414;-44
2022/08/24 14:30:27;;;;;;;;;;;;;;;;;;4823541;29;19935;-44
2022/08/24 14:33:00;;;;;;;;;;;;;;;;;;4837232;29;20274;-42
2022/08/24 14:35:36;;;;;;;;;;;;;;;;;;4823297;29;19928;-44
2022/08/24 14:38:20;;;;;;;;;;;;;;;;;;4823637;29;20023;-43
2022/08/24 14:40:50;;;;;;;;;;;;;;;;;;4823602;29;20387;-44
2022/08/24 14:43:23;;;;;;;;;;;;;;;;;;4823627;29;20437;-46
2022/08/24 14:46:09;;;;;;;;;;;;;;;;;;4821584;29;19925;-48
2022/08/24 14:48:55;;;;;;;;;;;;;;;;;;4821615;29;20461;-44
2022/08/24 14:51:25;;;;;;;;;;;;;;;;;;4821084;29;19925;-44
2022/08/24 14:53:59;;;;;;;;;;;;;;;;;;4821537;29;19940;-44
2022/08/24 14:56:36;;;;;;;;;;;;;;;;;;4821480;29;19928;-44
2022/08/24 14:59:15;;;;;;;;;;;;;;;;;;4823450;29;19928;-44
2022/08/24 15:01:44;;;;;;;;;;;;;;;;;;4823308;29;19925;-43
2022/08/24 15:04:20;;;;;;;;;;;;;;;;;;4823747;29;19981;-45
2022/08/24 15:07:22;;;;;;;;;;;;;;;;;;4823401;29;20023;-43
2022/08/24 15:09:50;;;;;;;;;;;;;;;;;;4823106;29;19935;-45
2022/08/24 15:12:21;;;;;;;;;;;;;;;;;;4822880;29;19935;-45
2022/08/24 15:14:53;;;;;;;;;;;;;;;;;;4823044;29;19977;-43
2022/08/24 15:17:24;;;;;;;;;;;;;;;;;;4823159;29;20007;-43
2022/08/24 15:19:59;;;;;;;;;;;;;;;;;;4823106;29;19979;-45
2022/08/24 15:22:39;;;;;;;;;;;;;;;;;;4822873;29;19929;-46
2022/08/24 15:25:10;;;;;;;;;;;;;;;;;;4836561;29;19924;-46
2022/08/24 15:27:43;;;;;;;;;;;;;;;;;;4823297;29;20292;-46
2022/08/24 15:30:20;;;;;;;;;;;;;;;;;;4822802;29;20004;-48
2022/08/24 15:32:50;;;;;;;;;;;;;;;;;;4821322;29;19971;-43
2022/08/24 15:35:25;;;;;;;;;;;;;;;;;;4822048;29;19935;-46
2022/08/24 15:37:52;;;;;;;;;;;;;;;;;;4822953;29;19925;-43
2022/08/24 15:40:31;;;;;;;;;;;;;;;;;;4823184;29;20377;-43
2022/08/24 15:43:00;;;;;;;;;;;;;;;;;;4822562;29;19967;-44
2022/08/24 15:45:27;;;;;;;;;;;;;;;;;;4822527;29;19929;-43
2022/08/24 15:47:56;;;;;;;;;;;;;;;;;;4822803;29;19932;-44
2022/08/24 15:50:23;;;;;;;;;;;;;;;;;;4822907;29;19924;-44
2022/08/24 15:53:00;;;;;;;;;;;;;;;;;;4822454;29;20341;-42
2022/08/24 15:55:30;;;;;;;;;;;;;;;;;;4822644;29;20007;-45
2022/08/24 15:58:16;;;;;;;;;;;;;;;;;;4822903;29;19931;-45
2022/08/24 16:03:50;;;;;;;;;;;;;;;;;;4822623;29;19925;-45
2022/08/24 16:06:30;;;;;;;;;;;;;;;;;;4823114;29;19925;-43
2022/08/24 16:09:00;;;;;;;;;;;;;;;;;;4825806;29;19932;-44
2022/08/24 16:11:30;;;;;;;;;;;;;;;;;;4815773;29;20509;-50
2022/08/24 16:13:58;;;;;;;;;;;;;;;;;;4807585;29;20054;-45
2022/08/24 16:16:44;;;;;;;;;;;;;;;;;;4807603;29;20405;-43
2022/08/24 16:19:22;;;;;;;;;;;;;;;;;;4807968;29;20017;-49
2022/08/24 16:21:54;;;;;;;;;;;;;;;;;;4807535;29;19924;-44
2022/08/24 16:24:22;;;;;;;;;;;;;;;;;;4807572;29;19982;-43
2022/08/24 16:26:49;;;;;;;;;;;;;;;;;;4807369;29;20416;-43
2022/08/24 16:29:35;;;;;;;;;;;;;;;;;;4807691;29;19937;-43
2022/08/24 16:32:14;;;;;;;;;;;;;;;;;;4807368;29;19925;-43
2022/08/24 16:34:49;;;;;;;;;;;;;;;;;;4807378;29;19933;-44
2022/08/24 16:37:19;;;;;;;;;;;;;;;;;;4807206;29;19925;-43
2022/08/24 16:39:46;;;;;;;;;;;;;;;;;;4807474;29;19974;-43
2022/08/24 16:42:25;;;;;;;;;;;;;;;;;;4807081;29;19925;-46
2022/08/24 16:44:53;;;;;;;;;;;;;;;;;;4807054;29;19955;-46
2022/08/24 16:47:21;;;;;;;;;;;;;;;;;;4807231;29;19925;-44
2022/08/24 16:49:48;;;;;;;;;;;;;;;;;;4806957;29;20406;-43
2022/08/24 16:52:16;;;;;;;;;;;;;;;;;;4807051;29;19954;-44
2022/08/24 16:54:44;;;;;;;;;;;;;;;;;;4806858;29;19931;-43
2022/08/24 16:57:13;;;;;;;;;;;;;;;;;;4807290;29;19929;-45
2022/08/24 16:59:42;;;;;;;;;;;;;;;;;;4807106;29;19936;-43
2022/08/24 17:02:11;;;;;;;;;;;;;;;;;;4807156;29;20347;-45
2022/08/24 17:04:39;;;;;;;;;;;;;;;;;;4806810;29;20365;-44
2022/08/24 17:07:09;;;;;;;;;;;;;;;;;;4807131;29;19925;-44
2022/08/24 17:09:37;;;;;;;;;;;;;;;;;;4806803;29;19965;-44
2022/08/24 17:12:04;;;;;;;;;;;;;;;;;;4806689;29;19925;-43
2022/08/24 17:14:31;;;;;;;;;;;;;;;;;;4806177;29;20018;-43
2022/08/24 17:16:59;;;;;;;;;;;;;;;;;;4806413;29;19936;-42
2022/08/24 17:19:28;;;;;;;;;;;;;;;;;;4811046;29;19929;-42
2022/08/24 17:21:56;;;;;;;;;;;;;;;;;;4824841;29;19925;-42
2022/08/24 17:24:24;;;;;;;;;;;;;;;;;;4824845;29;19981;-42
2022/08/24 17:26:52;;;;;;;;;;;;;;;;;;4824474;29;20274;-45
2022/08/24 17:29:21;;;;;;;;;;;;;;;;;;4824307;29;20489;-44
2022/08/24 17:31:48;;;;;;;;;;;;;;;;;;4824417;29;20400;-47
2022/08/24 17:34:16;;;;;;;;;;;;;;;;;;4824469;29;19925;-44
2022/08/24 17:36:44;;;;;;;;;;;;;;;;;;4824374;29;19958;-45
2022/08/24 17:39:12;;;;;;;;;;;;;;;;;;4824733;29;19925;-43
2022/08/24 17:41:39;;;;;;;;;;;;;;;;;;4824363;29;20381;-46